Time;durP1;ratioP1;P1;durP2;ratioP2;P2;SDS_P1;SDS_P2;PMS_P1;PMS_P2;Temp;Humidity;BMP_temperature;BMP_pressure;BME280_temperature;BME280_humidity;BME280_pressure;Samples;Min_cycle;Max_cycle;Signal;HPM_P1;HPM_P2
2021/07/12 00:00:19;;;;;;;7.82;2.28;;;;;;;;;;4997310;28;20117;-79
2021/07/12 00:02:44;;;;;;;6.00;2.40;;;;;;;;;;4998607;28;20034;-79
2021/07/12 00:05:10;;;;;;;3.05;2.20;;;;;;;;;;4990241;28;20045;-78
2021/07/12 00:07:36;;;;;;;4.88;2.20;;;;;;;;;;4997903;28;20033;-79
2021/07/12 00:10:07;;;;;;;3.85;2.17;;;;;;;;;;5001608;28;20030;-79
2021/07/12 00:12:33;;;;;;;2.38;1.92;;;;;;;;;;4988119;28;20105;-78
2021/07/12 00:14:59;;;;;;;2.58;2.03;;;;;;;;;;4999393;28;20524;-79
2021/07/12 00:17:24;;;;;;;3.05;2.30;;;;;;;;;;5000197;28;20049;-79
2021/07/12 00:19:50;;;;;;;2.47;1.80;;;;;;;;;;4994782;28;20043;-79
2021/07/12 00:22:16;;;;;;;4.47;2.60;;;;;;;;;;4993482;28;20026;-78
2021/07/12 00:24:41;;;;;;;3.85;2.13;;;;;;;;;;4996248;28;20485;-79
2021/07/12 00:27:06;;;;;;;4.60;2.35;;;;;;;;;;4977698;28;20030;-79
2021/07/12 00:29:32;;;;;;;5.75;2.55;;;;;;;;;;4988278;28;20034;-79
2021/07/12 00:31:59;;;;;;;4.93;2.30;;;;;;;;;;4978699;28;20070;-79
2021/07/12 00:34:24;;;;;;;4.45;2.50;;;;;;;;;;4997106;28;20512;-78
2021/07/12 00:36:50;;;;;;;9.52;2.65;;;;;;;;;;4994450;28;20046;-79
2021/07/12 00:39:15;;;;;;;6.95;2.67;;;;;;;;;;4994484;28;20028;-78
2021/07/12 00:41:41;;;;;;;12.13;2.90;;;;;;;;;;4995672;28;20025;-78
2021/07/12 00:44:07;;;;;;;6.75;2.85;;;;;;;;;;4996279;28;20053;-79
2021/07/12 00:46:33;;;;;;;4.18;2.58;;;;;;;;;;4987715;28;20129;-79
2021/07/12 00:48:59;;;;;;;6.50;2.67;;;;;;;;;;4989232;28;20145;-78
2021/07/12 00:51:25;;;;;;;5.50;3.03;;;;;;;;;;4996719;28;20097;-79
2021/07/12 00:53:51;;;;;;;5.38;2.63;;;;;;;;;;5013752;28;20517;-77
2021/07/12 00:56:17;;;;;;;7.72;2.42;;;;;;;;;;4981822;28;20047;-77
2021/07/12 00:58:42;;;;;;;6.57;3.03;;;;;;;;;;4989685;28;20270;-77
2021/07/12 01:01:09;;;;;;;3.25;2.25;;;;;;;;;;4969126;28;20061;-75
2021/07/12 01:03:35;;;;;;;7.65;2.72;;;;;;;;;;4968265;28;20026;-78
2021/07/12 01:06:01;;;;;;;5.68;2.58;;;;;;;;;;4967288;28;20494;-76
2021/07/12 01:08:26;;;;;;;4.95;2.85;;;;;;;;;;4965580;28;20035;-76
2021/07/12 01:11:24;;;;;;;3.72;2.72;;;;;;;;;;4966752;28;20118;-77
2021/07/12 01:14:09;;;;;;;4.85;3.20;;;;;;;;;;4961326;28;20498;-77
2021/07/12 01:16:43;;;;;;;6.68;3.10;;;;;;;;;;4960913;28;20047;-76
2021/07/12 01:19:48;;;;;;;4.75;3.40;;;;;;;;;;4967241;28;20038;-76
2021/07/12 01:22:33;;;;;;;3.65;2.83;;;;;;;;;;4970686;28;20371;-79
2021/07/12 01:25:24;;;;;;;7.22;3.45;;;;;;;;;;4963683;28;20038;-79
2021/07/12 01:28:27;;;;;;;3.50;3.10;;;;;;;;;;4969973;28;20490;-79
2021/07/12 01:31:17;;;;;;;6.72;4.57;;;;;;;;;;4966108;28;20057;-79
2021/07/12 01:34:02;;;;;;;6.28;3.72;;;;;;;;;;4966581;28;20082;-79
2021/07/12 01:36:37;;;;;;;4.07;3.17;;;;;;;;;;4961787;28;20030;-79
2021/07/12 01:39:07;;;;;;;4.68;3.10;;;;;;;;;;4969724;28;20111;-79
2021/07/12 01:41:47;;;;;;;9.85;3.50;;;;;;;;;;4968968;28;20023;-78
2021/07/12 01:44:41;;;;;;;4.55;3.95;;;;;;;;;;4967237;28;20030;-81
2021/07/12 01:47:13;;;;;;;5.03;3.53;;;;;;;;;;4968305;28;20031;-80
2021/07/12 01:49:57;;;;;;;;;;;;;;;;;;4972387;28;20054;-79
2021/07/12 01:52:30;;;;;;;7.40;3.60;;;;;;;;;;4966602;28;19914;-79
2021/07/12 01:54:59;;;;;;;5.05;4.10;;;;;;;;;;4967968;28;20027;-79
2021/07/12 01:57:33;;;;;;;5.18;3.70;;;;;;;;;;4969135;28;20027;-78
2021/07/12 02:00:10;;;;;;;4.30;3.67;;;;;;;;;;4957655;28;20030;-79
2021/07/12 02:02:39;;;;;;;7.47;3.90;;;;;;;;;;4950466;28;20271;-78
2021/07/12 02:05:11;;;;;;;7.00;3.50;;;;;;;;;;4962885;28;20034;-79
2021/07/12 02:07:39;;;;;;;5.50;3.70;;;;;;;;;;4969655;28;20022;-78
2021/07/12 02:10:06;;;;;;;8.48;3.60;;;;;;;;;;4965838;28;20522;-78
2021/07/12 02:12:35;;;;;;;9.18;3.97;;;;;;;;;;4963584;28;20027;-78
2021/07/12 02:15:06;;;;;;;6.13;4.10;;;;;;;;;;4966740;28;20042;-79
2021/07/12 02:17:33;;;;;;;6.38;3.92;;;;;;;;;;4962822;28;20050;-79
2021/07/12 02:20:00;;;;;;;6.28;3.83;;;;;;;;;;4968466;28;20502;-79
2021/07/12 02:22:29;;;;;;;7.70;4.00;;;;;;;;;;4964959;28;20482;-76
2021/07/12 02:24:59;;;;;;;6.80;4.13;;;;;;;;;;4958180;28;20038;-76
2021/07/12 02:27:25;;;;;;;7.30;4.38;;;;;;;;;;4952504;28;20042;-78
2021/07/12 02:29:53;;;;;;;9.82;4.22;;;;;;;;;;4965963;28;20721;-76
2021/07/12 02:32:20;;;;;;;7.53;4.18;;;;;;;;;;4963656;28;20031;-76
2021/07/12 02:34:46;;;;;;;7.40;4.32;;;;;;;;;;4933533;28;20031;-76
2021/07/12 02:37:13;;;;;;;10.23;4.82;;;;;;;;;;4967206;28;20045;-76
2021/07/12 02:39:40;;;;;;;9.68;5.38;;;;;;;;;;4963010;28;20042;-76
2021/07/12 02:42:08;;;;;;;8.18;5.50;;;;;;;;;;4959109;28;20057;-77
2021/07/12 02:44:35;;;;;;;7.40;5.40;;;;;;;;;;4964769;28;20034;-76
2021/07/12 02:47:00;;;;;;;8.77;6.07;;;;;;;;;;4943103;28;20117;-76
2021/07/12 02:49:26;;;;;;;8.77;6.13;;;;;;;;;;4930193;29;20123;-76
2021/07/12 02:52:07;;;;;;;8.52;6.32;;;;;;;;;;4958562;28;20515;-76
2021/07/12 02:54:39;;;;;;;10.07;6.93;;;;;;;;;;4964595;28;20029;-76
2021/07/12 02:57:05;;;;;;;12.07;7.20;;;;;;;;;;4966497;28;20561;-76
2021/07/12 02:59:30;;;;;;;11.18;7.03;;;;;;;;;;4963257;28;20046;-76
2021/07/12 03:01:56;;;;;;;12.18;7.55;;;;;;;;;;4962219;28;20042;-77
2021/07/12 03:04:21;;;;;;;11.05;6.90;;;;;;;;;;4963665;28;20039;-76
2021/07/12 03:06:51;;;;;;;11.05;7.72;;;;;;;;;;4964966;28;20034;-78
2021/07/12 03:09:25;;;;;;;11.05;6.93;;;;;;;;;;4966959;28;20023;-77
2021/07/12 03:11:54;;;;;;;10.32;7.18;;;;;;;;;;4963498;28;20490;-77
2021/07/12 03:14:28;;;;;;;10.85;7.75;;;;;;;;;;4963063;28;20038;-77
2021/07/12 03:16:55;;;;;;;11.65;7.20;;;;;;;;;;4962442;28;20443;-77
2021/07/12 03:19:28;;;;;;;13.05;7.32;;;;;;;;;;4958872;28;20031;-77
2021/07/12 03:21:55;;;;;;;11.48;8.05;;;;;;;;;;4968817;28;20062;-77
2021/07/12 03:24:21;;;;;;;9.68;6.68;;;;;;;;;;4963782;28;20058;-77
2021/07/12 03:26:52;;;;;;;11.25;7.15;;;;;;;;;;4967259;28;20494;-77
2021/07/12 03:29:19;;;;;;;13.40;7.10;;;;;;;;;;4964814;28;20039;-77
2021/07/12 03:31:44;;;;;;;8.88;7.07;;;;;;;;;;4967008;28;20042;-77
2021/07/12 03:34:13;;;;;;;11.13;7.35;;;;;;;;;;4962304;28;20031;-78
2021/07/12 03:36:39;;;;;;;17.60;8.13;;;;;;;;;;4979889;28;20113;-77
2021/07/12 03:39:06;;;;;;;9.00;6.40;;;;;;;;;;4945766;28;20027;-76
2021/07/12 03:41:32;;;;;;;12.98;7.05;;;;;;;;;;4966390;28;20031;-76
2021/07/12 03:43:58;;;;;;;10.15;6.78;;;;;;;;;;4963693;28;20134;-77
2021/07/12 03:46:24;;;;;;;10.52;7.20;;;;;;;;;;4967979;28;20030;-76
2021/07/12 03:48:50;;;;;;;10.32;7.30;;;;;;;;;;4965126;28;20043;-76
2021/07/12 03:51:27;;;;;;;11.82;7.25;;;;;;;;;;4931167;28;20026;-77
2021/07/12 03:53:53;;;;;;;10.57;7.03;;;;;;;;;;4966305;28;20063;-77
2021/07/12 03:56:19;;;;;;;10.32;7.32;;;;;;;;;;4964120;28;20041;-76
2021/07/12 03:58:45;;;;;;;12.38;7.45;;;;;;;;;;4966473;28;20367;-76
2021/07/12 04:01:10;;;;;;;16.38;8.07;;;;;;;;;;4964782;28;20115;-77
2021/07/12 04:03:36;;;;;;;14.20;7.68;;;;;;;;;;4965217;28;20034;-77
2021/07/12 04:06:03;;;;;;;11.18;8.02;;;;;;;;;;4961716;28;20058;-76
2021/07/12 04:08:28;;;;;;;11.13;7.72;;;;;;;;;;4964409;28;20509;-77
2021/07/12 04:10:54;;;;;;;9.73;7.63;;;;;;;;;;4948053;28;20062;-76
2021/07/12 04:13:19;;;;;;;12.00;7.60;;;;;;;;;;4949858;28;20110;-76
2021/07/12 04:15:45;;;;;;;13.07;7.60;;;;;;;;;;4948322;28;20054;-76
2021/07/12 04:18:10;;;;;;;11.52;7.47;;;;;;;;;;4964137;28;20061;-78
2021/07/12 04:20:37;;;;;;;11.90;7.60;;;;;;;;;;4963141;28;20046;-77
2021/07/12 04:23:05;;;;;;;11.27;7.68;;;;;;;;;;4967418;28;20030;-75
2021/07/12 04:25:30;;;;;;;10.57;7.63;;;;;;;;;;4971345;28;20061;-77
2021/07/12 04:27:57;;;;;;;10.48;7.32;;;;;;;;;;4969979;28;20549;-77
2021/07/12 04:30:24;;;;;;;10.23;7.05;;;;;;;;;;4987631;28;20066;-75
2021/07/12 04:32:49;;;;;;;9.82;6.97;;;;;;;;;;4962235;28;20437;-76
2021/07/12 04:35:15;;;;;;;12.70;7.45;;;;;;;;;;4949287;28;20034;-77
2021/07/12 04:37:41;;;;;;;11.13;7.45;;;;;;;;;;4964862;28;20092;-75
2021/07/12 04:40:08;;;;;;;13.32;7.20;;;;;;;;;;4954126;28;20142;-77
2021/07/12 04:42:33;;;;;;;11.70;7.05;;;;;;;;;;4985467;28;20046;-76
2021/07/12 04:44:59;;;;;;;10.23;6.78;;;;;;;;;;4964798;28;20436;-75
2021/07/12 04:47:24;;;;;;;12.00;7.10;;;;;;;;;;4965068;28;20077;-76
2021/07/12 04:49:50;;;;;;;11.27;6.50;;;;;;;;;;4968574;28;20298;-75
2021/07/12 04:52:15;;;;;;;8.88;6.72;;;;;;;;;;4938949;28;20030;-78
2021/07/12 04:54:42;;;;;;;9.82;6.20;;;;;;;;;;4967320;28;20034;-75
2021/07/12 04:57:08;;;;;;;10.52;5.72;;;;;;;;;;4950463;28;20039;-78
2021/07/12 04:59:38;;;;;;;8.98;5.63;;;;;;;;;;4963263;28;20086;-76
2021/07/12 05:02:05;;;;;;;9.30;5.78;;;;;;;;;;4965499;28;20542;-77
2021/07/12 05:04:31;;;;;;;8.93;5.53;;;;;;;;;;4964412;28;20031;-76
2021/07/12 05:06:56;;;;;;;6.88;5.07;;;;;;;;;;4966436;28;20058;-76
2021/07/12 05:09:22;;;;;;;8.18;4.60;;;;;;;;;;4964361;28;20692;-77
2021/07/12 05:11:49;;;;;;;6.97;4.85;;;;;;;;;;4968650;28;20110;-77
2021/07/12 05:14:15;;;;;;;10.30;4.85;;;;;;;;;;4966298;28;20026;-77
2021/07/12 05:16:40;;;;;;;7.22;5.18;;;;;;;;;;4969349;28;20088;-76
2021/07/12 05:19:06;;;;;;;7.45;5.30;;;;;;;;;;4967410;28;20414;-77
2021/07/12 05:21:32;;;;;;;7.72;5.38;;;;;;;;;;4962486;28;20058;-76
2021/07/12 05:23:57;;;;;;;9.15;5.85;;;;;;;;;;4947007;28;21198;-77
2021/07/12 05:26:24;;;;;;;9.13;5.40;;;;;;;;;;4963613;28;20042;-77
2021/07/12 05:28:49;;;;;;;9.32;5.72;;;;;;;;;;4968656;28;20618;-76
2021/07/12 05:31:15;;;;;;;12.75;6.65;;;;;;;;;;4964812;28;20031;-77
2021/07/12 05:33:41;;;;;;;8.27;5.95;;;;;;;;;;4965752;28;20035;-76
2021/07/12 05:36:06;;;;;;;8.57;6.38;;;;;;;;;;4962795;28;20043;-76
2021/07/12 05:38:33;;;;;;;10.65;6.65;;;;;;;;;;4967130;28;20118;-76
2021/07/12 05:40:59;;;;;;;9.60;6.55;;;;;;;;;;4962597;28;20391;-76
2021/07/12 05:43:25;;;;;;;12.85;6.40;;;;;;;;;;4966094;28;20033;-76
2021/07/12 05:45:51;;;;;;;8.68;5.93;;;;;;;;;;4954252;28;20097;-76
2021/07/12 05:48:16;;;;;;;9.48;6.80;;;;;;;;;;4934467;28;20613;-78
2021/07/12 05:50:42;;;;;;;8.10;5.78;;;;;;;;;;4963763;28;20496;-76
2021/07/12 05:53:08;;;;;;;11.48;6.28;;;;;;;;;;4966821;28;20481;-78
2021/07/12 05:55:33;;;;;;;8.65;6.25;;;;;;;;;;4965147;28;20031;-78
2021/07/12 05:57:59;;;;;;;8.27;6.03;;;;;;;;;;4985314;28;20117;-77
2021/07/12 06:00:25;;;;;;;8.68;6.13;;;;;;;;;;4947108;28;20034;-77
2021/07/12 06:02:50;;;;;;;8.43;5.35;;;;;;;;;;4979353;28;20057;-76
2021/07/12 06:05:16;;;;;;;7.68;5.40;;;;;;;;;;4965575;28;20031;-76
2021/07/12 06:07:42;;;;;;;8.20;5.28;;;;;;;;;;4970631;28;20046;-77
2021/07/12 06:10:08;;;;;;;8.50;5.50;;;;;;;;;;4967508;28;20034;-76
2021/07/12 06:12:34;;;;;;;9.60;6.20;;;;;;;;;;4968550;28;20142;-76
2021/07/12 06:15:00;;;;;;;7.07;4.57;;;;;;;;;;4966279;28;20031;-76
2021/07/12 06:17:26;;;;;;;7.18;4.40;;;;;;;;;;4970041;28;20549;-76
2021/07/12 06:19:51;;;;;;;8.68;4.97;;;;;;;;;;4970613;28;20035;-76
2021/07/12 06:22:17;;;;;;;6.43;4.22;;;;;;;;;;4969477;28;20449;-76
2021/07/12 06:24:42;;;;;;;5.72;4.07;;;;;;;;;;4966156;28;20122;-76
2021/07/12 06:27:08;;;;;;;9.20;3.58;;;;;;;;;;4966031;28;20034;-76
2021/07/12 06:29:34;;;;;;;6.38;2.95;;;;;;;;;;4963581;28;20046;-76
2021/07/12 06:31:59;;;;;;;4.20;3.00;;;;;;;;;;4964726;28;20035;-76
2021/07/12 06:34:25;;;;;;;4.85;2.60;;;;;;;;;;4967617;28;20035;-76
2021/07/12 06:36:50;;;;;;;3.33;2.80;;;;;;;;;;4961457;28;20446;-77
2021/07/12 06:39:16;;;;;;;3.72;2.67;;;;;;;;;;4960766;28;20026;-77
2021/07/12 06:41:42;;;;;;;4.57;3.25;;;;;;;;;;4969025;28;20061;-77
2021/07/12 06:44:07;;;;;;;4.00;3.00;;;;;;;;;;4959722;28;20113;-77
2021/07/12 06:46:33;;;;;;;3.80;2.63;;;;;;;;;;4959593;28;20492;-76
2021/07/12 06:48:58;;;;;;;3.28;2.42;;;;;;;;;;4946353;28;20050;-77
2021/07/12 06:51:24;;;;;;;3.58;2.45;;;;;;;;;;4935509;28;20057;-77
2021/07/12 06:53:49;;;;;;;6.18;2.60;;;;;;;;;;4966632;28;20089;-79
2021/07/12 06:56:15;;;;;;;3.38;2.80;;;;;;;;;;4968090;28;20026;-79
2021/07/12 06:58:42;;;;;;;3.58;2.75;;;;;;;;;;4961068;28;20098;-80
2021/07/12 07:01:07;;;;;;;5.95;3.20;;;;;;;;;;4978635;28;20031;-80
2021/07/12 07:03:33;;;;;;;3.42;2.58;;;;;;;;;;4977554;28;20049;-80
2021/07/12 07:05:58;;;;;;;3.58;2.47;;;;;;;;;;4948219;28;20042;-80
2021/07/12 07:08:24;;;;;;;3.47;2.40;;;;;;;;;;4946729;28;20112;-80
2021/07/12 07:10:50;;;;;;;2.85;2.55;;;;;;;;;;4964594;28;20034;-80
2021/07/12 07:13:15;;;;;;;2.92;2.63;;;;;;;;;;4944057;28;20089;-80
2021/07/12 07:15:41;;;;;;;3.20;2.88;;;;;;;;;;4961549;28;20127;-80
2021/07/12 07:18:10;;;;;;;4.10;2.92;;;;;;;;;;4946445;28;20070;-79
2021/07/12 07:20:35;;;;;;;3.20;2.60;;;;;;;;;;4960081;28;20031;-80
2021/07/12 07:23:01;;;;;;;4.38;3.10;;;;;;;;;;4961085;28;20046;-77
2021/07/12 07:25:26;;;;;;;3.40;2.78;;;;;;;;;;4964758;28;20453;-77
2021/07/12 07:27:52;;;;;;;3.67;2.70;;;;;;;;;;4960019;28;20035;-77
2021/07/12 07:30:18;;;;;;;3.50;2.55;;;;;;;;;;4967485;28;20391;-77
2021/07/12 07:32:44;;;;;;;3.40;2.75;;;;;;;;;;4965271;28;20026;-77
2021/07/12 07:35:10;;;;;;;3.80;2.80;;;;;;;;;;4965722;28;20054;-76
2021/07/12 07:37:36;;;;;;;8.63;2.97;;;;;;;;;;4947677;28;20046;-77
2021/07/12 07:40:04;;;;;;;3.15;2.67;;;;;;;;;;4931372;28;20052;-76
2021/07/12 07:42:30;;;;;;;5.53;2.80;;;;;;;;;;4959611;28;20441;-76
2021/07/12 07:44:59;;;;;;;3.25;2.70;;;;;;;;;;4966480;28;20062;-76
2021/07/12 07:47:24;;;;;;;3.28;2.72;;;;;;;;;;4962354;28;20034;-76
2021/07/12 07:49:50;;;;;;;6.25;3.25;;;;;;;;;;4961047;28;20027;-76
2021/07/12 07:52:15;;;;;;;4.97;3.20;;;;;;;;;;4963581;28;20035;-76
2021/07/12 07:54:41;;;;;;;6.13;3.60;;;;;;;;;;4963946;28;20026;-76
2021/07/12 07:57:06;;;;;;;5.85;4.35;;;;;;;;;;4964969;28;20054;-76
2021/07/12 07:59:32;;;;;;;9.68;3.92;;;;;;;;;;4968219;28;20658;-76
2021/07/12 08:01:57;;;;;;;6.45;4.13;;;;;;;;;;4963212;28;20041;-76
2021/07/12 08:04:23;;;;;;;7.97;4.45;;;;;;;;;;4966541;28;20450;-76
2021/07/12 08:06:49;;;;;;;7.30;3.80;;;;;;;;;;4969132;28;20036;-76
2021/07/12 08:09:14;;;;;;;4.35;3.75;;;;;;;;;;4953862;28;20114;-76
2021/07/12 08:11:40;;;;;;;5.70;4.07;;;;;;;;;;4990022;28;20022;-76
2021/07/12 08:14:06;;;;;;;7.28;4.53;;;;;;;;;;4953283;28;20035;-76
2021/07/12 08:16:31;;;;;;;5.60;4.57;;;;;;;;;;4967421;28;20505;-76
2021/07/12 08:18:58;;;;;;;7.20;4.53;;;;;;;;;;4966158;28;20030;-76
2021/07/12 08:21:23;;;;;;;5.25;4.22;;;;;;;;;;4961177;28;20043;-75
2021/07/12 08:23:49;;;;;;;7.50;4.90;;;;;;;;;;4961366;28;20039;-79
2021/07/12 08:26:15;;;;;;;7.15;4.63;;;;;;;;;;4962211;28;20038;-79
2021/07/12 08:28:41;;;;;;;6.57;4.05;;;;;;;;;;4968735;28;20058;-79
2021/07/12 08:31:08;;;;;;;9.68;5.07;;;;;;;;;;4970716;28;20584;-79
2021/07/12 08:33:34;;;;;;;8.38;4.80;;;;;;;;;;4970353;28;20118;-79
2021/07/12 08:35:59;;;;;;;7.18;4.15;;;;;;;;;;4964345;28;20659;-79
2021/07/12 08:38:25;;;;;;;6.85;4.88;;;;;;;;;;4964885;28;20093;-79
2021/07/12 08:40:55;;;;;;;5.68;4.35;;;;;;;;;;4968601;28;20109;-79
2021/07/12 08:43:21;;;;;;;4.43;3.33;;;;;;;;;;4969269;28;20308;-80
2021/07/12 08:45:47;;;;;;;5.05;2.80;;;;;;;;;;4968951;28;20393;-80
2021/07/12 08:48:14;;;;;;;7.82;2.83;;;;;;;;;;4966145;28;20031;-80
2021/07/12 08:50:40;;;;;;;3.65;2.17;;;;;;;;;;4970224;28;20433;-80
2021/07/12 08:53:06;;;;;;;5.40;2.67;;;;;;;;;;4963943;28;20553;-78
2021/07/12 08:55:32;;;;;;;4.10;2.85;;;;;;;;;;4966785;28;20031;-77
2021/07/12 08:58:12;;;;;;;4.03;2.60;;;;;;;;;;4952586;28;20090;-78
2021/07/12 09:00:38;;;;;;;4.82;2.70;;;;;;;;;;4966925;28;20039;-78
2021/07/12 09:03:24;;;;;;;4.22;2.70;;;;;;;;;;4964591;28;20405;-77
2021/07/12 09:05:57;;;;;;;6.47;2.97;;;;;;;;;;4966618;28;20030;-77
2021/07/12 09:08:53;;;;;;;5.00;2.60;;;;;;;;;;4964506;28;20065;-78
2021/07/12 09:11:29;;;;;;;5.05;2.60;;;;;;;;;;4963454;28;20031;-78
2021/07/12 09:14:09;;;;;;;5.72;2.67;;;;;;;;;;4963217;28;20057;-77
2021/07/12 09:16:48;;;;;;;6.65;2.30;;;;;;;;;;4961934;28;20073;-79
2021/07/12 09:19:15;;;;;;;4.00;2.13;;;;;;;;;;4947036;28;20584;-79
2021/07/12 09:21:48;;;;;;;5.05;2.00;;;;;;;;;;4962018;28;20023;-77
2021/07/12 09:24:23;;;;;;;3.05;2.30;;;;;;;;;;4964390;28;20426;-78
2021/07/12 09:27:09;;;;;;;2.60;1.33;;;;;;;;;;4963720;28;20035;-77
2021/07/12 09:29:37;;;;;;;3.65;1.80;;;;;;;;;;4964554;28;20043;-76
2021/07/12 09:32:08;;;;;;;3.08;1.65;;;;;;;;;;4965921;28;20174;-78
2021/07/12 09:34:33;;;;;;;3.45;2.20;;;;;;;;;;4967009;28;20154;-77
2021/07/12 09:36:59;;;;;;;2.00;1.80;;;;;;;;;;4949663;28;20153;-77
2021/07/12 09:39:30;;;;;;;4.18;3.38;;;;;;;;;;4965845;28;20027;-75
2021/07/12 09:42:07;;;;;;;4.10;2.03;;;;;;;;;;4966685;28;20603;-75
2021/07/12 09:44:35;;;;;;;3.30;1.63;;;;;;;;;;4969614;28;20023;-75
2021/07/12 09:47:10;;;;;;;2.40;1.77;;;;;;;;;;4965496;28;20170;-78
2021/07/12 09:49:37;;;;;;;1.67;1.50;;;;;;;;;;4969703;28;20554;-75
2021/07/12 09:52:05;;;;;;;4.60;1.40;;;;;;;;;;4953089;28;20084;-76
2021/07/12 09:54:37;;;;;;;4.80;1.77;;;;;;;;;;4969392;28;20169;-76
2021/07/12 09:57:17;;;;;;;2.63;1.77;;;;;;;;;;4965925;28;20065;-75
2021/07/12 10:00:08;;;;;;;2.22;1.30;;;;;;;;;;4961183;28;20734;-76
2021/07/12 10:02:36;;;;;;;1.40;1.20;;;;;;;;;;4967960;28;20035;-78
2021/07/12 10:05:10;;;;;;;2.47;1.40;;;;;;;;;;4966964;28;20105;-77
2021/07/12 10:07:36;;;;;;;2.70;1.38;;;;;;;;;;4964197;28;20053;-77
2021/07/12 10:10:06;;;;;;;5.15;1.60;;;;;;;;;;4968712;28;20019;-76
2021/07/12 10:12:31;;;;;;;2.00;1.60;;;;;;;;;;4967903;28;20089;-76
2021/07/12 10:14:57;;;;;;;2.22;1.23;;;;;;;;;;4965258;28;20031;-76
2021/07/12 10:17:23;;;;;;;4.30;2.42;;;;;;;;;;4966170;28;20065;-76
2021/07/12 10:19:49;;;;;;;2.63;1.65;;;;;;;;;;4968451;28;21261;-76
2021/07/12 10:22:16;;;;;;;2.45;1.80;;;;;;;;;;4965333;28;20034;-76
2021/07/12 10:24:47;;;;;;;7.97;1.77;;;;;;;;;;4968716;28;20054;-76
2021/07/12 10:27:27;;;;;;;1.90;1.70;;;;;;;;;;4967104;28;20038;-76
2021/07/12 10:29:55;;;;;;;5.07;2.13;;;;;;;;;;4964097;28;20034;-76
2021/07/12 10:32:25;;;;;;;6.82;2.47;;;;;;;;;;4970305;28;20026;-77
2021/07/12 10:34:53;;;;;;;3.83;2.00;;;;;;;;;;4970932;28;20031;-78
2021/07/12 10:37:23;;;;;;;3.63;2.38;;;;;;;;;;4968366;28;20035;-77
2021/07/12 10:40:05;;;;;;;3.97;2.17;;;;;;;;;;4971035;28;20381;-77
2021/07/12 10:42:53;;;;;;;5.03;2.90;;;;;;;;;;4964087;28;20030;-77
2021/07/12 10:45:33;;;;;;;4.88;1.90;;;;;;;;;;4958545;28;20569;-77
2021/07/12 10:48:04;;;;;;;6.43;2.22;;;;;;;;;;4961434;28;20504;-76
2021/07/12 10:50:38;;;;;;;4.63;2.40;;;;;;;;;;4963909;28;20025;-75
2021/07/12 10:53:16;;;;;;;3.65;2.75;;;;;;;;;;4969086;28;20142;-76
2021/07/12 10:55:59;;;;;;;5.63;2.67;;;;;;;;;;4964007;28;20038;-75
2021/07/12 10:58:28;;;;;;;8.23;3.25;;;;;;;;;;4968862;28;20105;-76
2021/07/12 11:00:56;;;;;;;6.55;2.88;;;;;;;;;;4968271;28;20170;-75
2021/07/12 11:03:42;;;;;;;7.10;3.15;;;;;;;;;;4967963;28;20026;-75
2021/07/12 11:06:22;;;;;;;8.52;3.22;;;;;;;;;;4969328;28;20117;-75
2021/07/12 11:09:00;;;;;;;6.40;3.00;;;;;;;;;;4964177;28;20034;-76
2021/07/12 11:11:25;;;;;;;4.38;3.00;;;;;;;;;;4964539;28;20027;-75
2021/07/12 11:13:53;;;;;;;8.43;4.53;;;;;;;;;;4965544;28;20781;-76
2021/07/12 11:16:24;;;;;;;4.35;2.80;;;;;;;;;;4969585;28;20395;-76
2021/07/12 11:18:51;;;;;;;5.82;2.90;;;;;;;;;;4968269;28;20022;-76
2021/07/12 11:21:34;;;;;;;2.90;2.53;;;;;;;;;;4968598;28;20545;-75
2021/07/12 11:24:19;;;;;;;6.22;2.78;;;;;;;;;;4965282;28;20030;-75
2021/07/12 11:26:49;;;;;;;5.95;2.65;;;;;;;;;;4964107;28;20493;-76
2021/07/12 11:29:18;;;;;;;7.20;3.15;;;;;;;;;;4962129;28;20034;-76
2021/07/12 11:31:45;;;;;;;3.60;2.60;;;;;;;;;;4968394;28;20065;-74
2021/07/12 11:34:32;;;;;;;3.75;2.67;;;;;;;;;;4968098;28;20031;-76
2021/07/12 11:37:14;;;;;;;3.80;2.72;;;;;;;;;;4969210;28;20045;-75
2021/07/12 11:39:46;;;;;;;4.70;2.90;;;;;;;;;;4969357;28;20039;-75
2021/07/12 11:42:20;;;;;;;3.90;2.97;;;;;;;;;;4967757;28;20405;-75
2021/07/12 11:44:56;;;;;;;8.73;2.60;;;;;;;;;;4966026;28;20118;-74
2021/07/12 11:47:24;;;;;;;6.97;2.75;;;;;;;;;;4963237;28;20027;-76
2021/07/12 11:49:55;;;;;;;3.05;2.50;;;;;;;;;;4965144;28;20498;-76
2021/07/12 11:52:22;;;;;;;3.50;2.20;;;;;;;;;;4968070;28;20015;-76
2021/07/12 11:54:55;;;;;;;5.35;2.42;;;;;;;;;;4947787;28;20037;-76
2021/07/12 11:57:20;;;;;;;7.20;1.83;;;;;;;;;;4967544;28;20042;-76
2021/07/12 11:59:46;;;;;;;5.07;3.20;;;;;;;;;;4962346;28;20030;-75
2021/07/12 12:02:14;;;;;;;4.18;2.20;;;;;;;;;;4966460;28;20057;-75
2021/07/12 12:04:59;;;;;;;5.35;2.50;;;;;;;;;;4967766;28;20613;-75
2021/07/12 12:07:27;;;;;;;4.22;2.42;;;;;;;;;;4967059;28;20066;-75
2021/07/12 12:10:02;;;;;;;6.57;2.40;;;;;;;;;;4967225;28;20034;-74
2021/07/12 12:12:58;;;;;;;5.63;2.60;;;;;;;;;;4968969;28;20014;-74
2021/07/12 12:15:32;;;;;;;4.78;2.50;;;;;;;;;;4962931;28;20219;-74
2021/07/12 12:18:00;;;;;;;3.42;2.70;;;;;;;;;;4963606;28;20183;-75
2021/07/12 12:20:36;;;;;;;9.18;3.60;;;;;;;;;;4967416;28;20125;-75
2021/07/12 12:23:07;;;;;;;11.98;2.60;;;;;;;;;;4965646;28;20038;-75
2021/07/12 12:25:44;;;;;;;7.28;2.38;;;;;;;;;;4968850;28;20073;-75
2021/07/12 12:28:28;;;;;;;6.88;2.50;;;;;;;;;;4964070;28;20503;-75
2021/07/12 12:30:54;;;;;;;6.70;2.40;;;;;;;;;;4967545;28;20512;-75
2021/07/12 12:33:25;;;;;;;6.63;2.60;;;;;;;;;;4968817;28;20047;-75
2021/07/12 12:35:58;;;;;;;5.13;2.40;;;;;;;;;;4967412;28;20573;-75
2021/07/12 12:38:24;;;;;;;3.85;2.03;;;;;;;;;;4967123;28;20526;-75
2021/07/12 12:41:03;;;;;;;9.48;2.10;;;;;;;;;;4968189;28;20026;-76
2021/07/12 12:43:29;;;;;;;5.18;2.13;;;;;;;;;;4967790;28;20050;-75
2021/07/12 12:45:58;;;;;;;5.47;2.17;;;;;;;;;;4951845;28;20046;-75
2021/07/12 12:48:34;;;;;;;7.07;2.20;;;;;;;;;;4967222;28;20642;-75
2021/07/12 12:51:29;;;;;;;3.17;1.85;;;;;;;;;;4967766;28;20046;-76
2021/07/12 12:54:11;;;;;;;8.25;2.28;;;;;;;;;;4971051;28;20033;-75
2021/07/12 12:56:51;;;;;;;2.65;2.10;;;;;;;;;;4967510;28;20038;-76
2021/07/12 12:59:27;;;;;;;8.48;2.10;;;;;;;;;;4969604;28;20133;-76
2021/07/12 13:02:03;;;;;;;6.65;2.30;;;;;;;;;;4984714;28;20038;-75
2021/07/12 13:04:49;;;;;;;4.20;2.20;;;;;;;;;;4966676;28;20374;-75
2021/07/12 13:07:28;;;;;;;5.22;2.70;;;;;;;;;;4969651;28;20026;-75
2021/07/12 13:10:09;;;;;;;3.60;2.25;;;;;;;;;;4970456;28;20509;-76
2021/07/12 13:13:04;;;;;;;6.85;2.22;;;;;;;;;;4961290;28;20125;-76
2021/07/12 13:15:36;;;;;;;4.20;2.35;;;;;;;;;;4971308;28;20519;-76
2021/07/12 13:18:06;;;;;;;7.03;2.60;;;;;;;;;;4971786;28;20027;-76
2021/07/12 13:20:33;;;;;;;5.00;2.13;;;;;;;;;;4971050;28;20019;-76
2021/07/12 13:23:03;;;;;;;3.55;2.30;;;;;;;;;;4967570;28;20505;-75
2021/07/12 13:25:37;;;;;;;2.58;2.20;;;;;;;;;;4971346;28;20039;-77
2021/07/12 13:28:07;;;;;;;3.95;2.50;;;;;;;;;;4969439;28;20030;-77
2021/07/12 13:30:44;;;;;;;5.15;2.58;;;;;;;;;;4966488;28;20616;-76
2021/07/12 13:33:19;;;;;;;4.70;2.97;;;;;;;;;;4967440;28;20030;-75
2021/07/12 13:35:46;;;;;;;3.58;2.90;;;;;;;;;;4966614;28;20553;-76
2021/07/12 13:38:13;;;;;;;6.38;2.75;;;;;;;;;;4965807;28;20063;-76
2021/07/12 13:40:40;;;;;;;7.80;3.20;;;;;;;;;;4970828;28;20057;-76
2021/07/12 13:43:08;;;;;;;6.35;3.63;;;;;;;;;;4971407;28;20050;-76
2021/07/12 13:45:34;;;;;;;5.43;3.15;;;;;;;;;;4960770;28;20502;-77
2021/07/12 13:48:00;;;;;;;7.00;2.97;;;;;;;;;;4974047;28;20034;-77
2021/07/12 13:50:29;;;;;;;5.68;2.75;;;;;;;;;;4969126;28;20394;-76
2021/07/12 13:52:57;;;;;;;5.32;2.88;;;;;;;;;;4970969;28;20055;-77
2021/07/12 13:55:23;;;;;;;8.90;3.17;;;;;;;;;;4966408;28;20023;-76
2021/07/12 13:57:50;;;;;;;4.88;2.72;;;;;;;;;;4969551;28;20518;-77
2021/07/12 14:00:18;;;;;;;6.03;2.30;;;;;;;;;;4966848;28;20037;-77
2021/07/12 14:02:43;;;;;;;2.50;2.25;;;;;;;;;;4969533;28;20776;-82
2021/07/12 14:05:11;;;;;;;7.57;2.90;;;;;;;;;;4966226;28;20031;-82
2021/07/12 14:07:38;;;;;;;7.25;3.03;;;;;;;;;;4968865;28;20054;-82
2021/07/12 14:10:05;;;;;;;7.82;2.92;;;;;;;;;;4953578;28;20045;-82
2021/07/12 14:12:31;;;;;;;10.00;3.13;;;;;;;;;;4987874;28;20030;-82
2021/07/12 14:14:57;;;;;;;4.78;3.00;;;;;;;;;;4962236;28;20094;-82
2021/07/12 14:17:22;;;;;;;4.70;3.08;;;;;;;;;;4985859;28;20589;-82
2021/07/12 14:19:48;;;;;;;7.88;3.10;;;;;;;;;;4967303;28;20038;-82
2021/07/12 14:22:13;;;;;;;7.22;3.13;;;;;;;;;;4972454;28;20045;-82
2021/07/12 14:24:40;;;;;;;8.10;3.70;;;;;;;;;;4972349;28;20035;-82
2021/07/12 14:27:06;;;;;;;4.35;3.40;;;;;;;;;;4969760;28;20038;-82
2021/07/12 14:29:32;;;;;;;6.47;3.45;;;;;;;;;;4966659;28;20035;-82
2021/07/12 14:31:58;;;;;;;4.30;2.83;;;;;;;;;;4967051;28;20035;-82
2021/07/12 14:34:23;;;;;;;5.18;3.13;;;;;;;;;;4937318;28;20177;-76
2021/07/12 14:36:49;;;;;;;4.07;3.42;;;;;;;;;;4968880;28;20089;-77
2021/07/12 14:39:15;;;;;;;7.20;3.35;;;;;;;;;;4969050;28;20034;-77
2021/07/12 14:41:41;;;;;;;3.95;3.35;;;;;;;;;;4946980;28;20037;-76
2021/07/12 14:44:07;;;;;;;7.13;3.30;;;;;;;;;;4965963;28;20038;-76
2021/07/12 14:46:32;;;;;;;5.03;3.10;;;;;;;;;;4951239;28;20039;-77
2021/07/12 14:48:58;;;;;;;6.40;3.35;;;;;;;;;;4968248;28;20034;-77
2021/07/12 14:51:24;;;;;;;5.03;3.17;;;;;;;;;;4968835;28;20081;-77
2021/07/12 14:53:52;;;;;;;4.75;3.25;;;;;;;;;;4969096;28;20589;-77